Time;durP1;ratioP1;P1;durP2;ratioP2;P2;SDS_P1;SDS_P2;PMS_P1;PMS_P2;Temp;Humidity;BMP_temperature;BMP_pressure;BME280_temperature;BME280_humidity;BME280_pressure;Samples;Min_cycle;Max_cycle;Signal;HPM_P1;HPM_P2
2021/04/21 00:02:14;;;;;;;;;;;8.70;91.10;;;;;;5015079;28;92302;-63
2021/04/21 00:04:40;;;;;;;;;;;8.70;91.10;;;;;;5017406;28;93768;-63
2021/04/21 00:07:06;;;;;;;;;;;8.70;91.00;;;;;;5015078;28;93798;-63
2021/04/21 00:09:32;;;;;;;;;;;8.70;91.10;;;;;;5012059;28;93181;-62
2021/04/21 00:11:58;;;;;;;;;;;8.60;91.10;;;;;;5014055;28;92952;-63
2021/04/21 00:14:25;;;;;;;;;;;8.60;91.10;;;;;;5016061;28;93737;-62
2021/04/21 00:16:54;;;;;;;;;;;8.60;91.10;;;;;;5019881;28;92235;-63
2021/04/21 00:19:20;;;;;;;;;;;8.60;91.00;;;;;;5013688;28;94314;-62
2021/04/21 00:21:47;;;;;;;;;;;8.60;91.10;;;;;;5013871;28;92194;-63
2021/04/21 00:24:14;;;;;;;;;;;8.60;91.10;;;;;;5013166;28;92828;-63
2021/04/21 00:26:39;;;;;;;;;;;8.60;91.10;;;;;;5017187;28;93618;-63
2021/04/21 00:29:05;;;;;;;;;;;8.60;91.10;;;;;;5017845;28;92230;-63
2021/04/21 00:31:31;;;;;;;;;;;8.60;91.10;;;;;;5020047;28;92182;-63
2021/04/21 00:33:58;;;;;;;;;;;8.60;91.10;;;;;;5019636;28;94703;-63
2021/04/21 00:36:24;;;;;;;;;;;8.60;91.10;;;;;;5022594;28;92217;-63
2021/04/21 00:38:51;;;;;;;;;;;8.60;91.00;;;;;;5018162;28;93421;-63
2021/04/21 00:41:37;;;;;;;;;;;8.60;91.00;;;;;;5016111;28;92224;-63
2021/04/21 00:44:12;;;;;;;;;;;8.60;91.00;;;;;;5008773;28;92501;-62
2021/04/21 00:46:51;;;;;;;;;;;8.60;91.00;;;;;;5017353;28;93321;-63
2021/04/21 00:49:36;;;;;;;;;;;8.60;91.00;;;;;;5020352;28;92268;-63
2021/04/21 00:52:04;;;;;;;;;;;8.60;91.10;;;;;;5017235;28;92310;-63
2021/04/21 00:54:57;;;;;;;;;;;8.50;91.00;;;;;;5017713;28;95062;-62
2021/04/21 00:57:29;;;;;;;;;;;8.60;91.00;;;;;;5018716;28;92179;-63
2021/04/21 01:00:02;;;;;;;;;;;8.60;91.00;;;;;;5000093;27;93136;-63
2021/04/21 01:02:30;;;;;;;;;;;8.60;91.00;;;;;;5000325;28;93809;-63
2021/04/21 01:04:57;;;;;;;;;;;8.60;91.00;;;;;;4997941;28;92682;-62
2021/04/21 01:07:23;;;;;;;;;;;8.60;91.00;;;;;;4997551;28;92979;-62
2021/04/21 01:09:51;;;;;;;;;;;8.60;91.00;;;;;;4998305;28;92224;-63
2021/04/21 01:12:18;;;;;;;;;;;8.60;91.00;;;;;;4996612;28;92393;-63
2021/04/21 01:14:46;;;;;;;;;;;8.50;91.00;;;;;;4996609;28;94345;-63
2021/04/21 01:17:13;;;;;;;;;;;8.50;91.00;;;;;;4999121;28;91460;-62
2021/04/21 01:19:41;;;;;;;;;;;8.50;91.00;;;;;;4998456;28;92214;-63
2021/04/21 01:22:27;;;;;;;;;;;8.50;91.00;;;;;;4998108;28;92260;-63
2021/04/21 01:25:05;;;;;;;;;;;8.50;91.00;;;;;;4985233;28;93296;-63
2021/04/21 01:27:40;;;;;;;;;;;8.50;91.00;;;;;;4996681;28;94612;-63
2021/04/21 01:30:07;;;;;;;;;;;8.50;91.00;;;;;;4997022;28;92227;-62
2021/04/21 01:32:33;;;;;;;;;;;8.50;91.00;;;;;;4994935;28;94022;-63
2021/04/21 01:34:59;;;;;;;;;;;8.50;91.00;;;;;;4998101;28;93019;-63
2021/04/21 01:37:28;;;;;;;;;;;8.50;91.00;;;;;;4998416;28;92281;-62
2021/04/21 01:39:55;;;;;;;;;;;8.50;91.00;;;;;;4996186;28;92234;-62
2021/04/21 01:42:23;;;;;;;;;;;8.50;91.00;;;;;;4995350;28;91844;-63
2021/04/21 01:44:50;;;;;;;;;;;8.50;91.00;;;;;;5002458;28;92247;-63
2021/04/21 01:47:18;;;;;;;;;;;8.50;91.20;;;;;;4996900;28;94873;-62
2021/04/21 01:49:47;;;;;;;;;;;8.50;91.00;;;;;;4995109;28;93194;-63
2021/04/21 01:52:26;;;;;;;;;;;8.50;91.00;;;;;;4998943;28;93314;-62
2021/04/21 01:54:53;;;;;;;;;;;8.50;91.00;;;;;;4995860;28;93345;-62
2021/04/21 01:57:28;;;;;;;;;;;8.50;91.00;;;;;;4995051;28;92148;-62
2021/04/21 02:00:01;;;;;;;;;;;8.50;91.00;;;;;;4997385;28;93909;-62
2021/04/21 02:02:30;;;;;;;;;;;8.50;91.00;;;;;;4994711;28;93540;-63
2021/04/21 02:05:02;;;;;;;;;;;8.50;91.00;;;;;;4996778;28;92234;-63
2021/04/21 02:07:39;;;;;;;;;;;8.40;91.00;;;;;;4999221;28;92448;-62
2021/04/21 02:10:09;;;;;;;;;;;8.40;91.00;;;;;;4996248;28;93002;-63
2021/04/21 02:12:36;;;;;;;;;;;8.40;91.00;;;;;;4995479;28;92186;-63
2021/04/21 02:15:05;;;;;;;;;;;8.50;91.20;;;;;;4995178;28;95018;-63
2021/04/21 02:17:49;;;;;;;;;;;8.50;90.90;;;;;;4996811;28;92359;-63
2021/04/21 02:20:27;;;;;;;;;;;8.40;91.00;;;;;;4995716;28;93713;-63
2021/04/21 02:23:06;;;;;;;;;;;8.40;91.00;;;;;;4998361;28;93320;-62
2021/04/21 02:25:35;;;;;;;;;;;8.40;91.00;;;;;;4995772;28;92235;-63
2021/04/21 02:28:12;;;;;;;;;;;8.40;90.90;;;;;;5001761;28;92397;-63
2021/04/21 02:30:56;;;;;;;;;;;8.40;90.90;;;;;;4996574;28;92270;-63
2021/04/21 02:33:47;;;;;;;;;;;8.40;90.90;;;;;;4997015;28;92561;-62
2021/04/21 02:36:16;;;;;;;;;;;8.40;91.00;;;;;;4994295;28;92719;-62
2021/04/21 02:38:45;;;;;;;;;;;8.40;91.00;;;;;;4995154;28;92315;-62
2021/04/21 02:41:15;;;;;;;;;;;8.40;90.90;;;;;;4996859;28;93141;-63
2021/04/21 02:44:00;;;;;;;;;;;8.40;91.00;;;;;;4997866;28;94143;-63
2021/04/21 02:46:37;;;;;;;;;;;8.40;91.00;;;;;;4995027;28;92601;-62
2021/04/21 02:49:03;;;;;;;;;;;8.40;91.00;;;;;;4994311;28;93384;-62
2021/04/21 02:51:47;;;;;;;;;;;8.40;91.00;;;;;;4997607;28;92715;-62
2021/04/21 02:54:31;;;;;;;;;;;8.30;90.90;;;;;;4998206;28;94061;-63
2021/04/21 02:57:09;;;;;;;;;;;8.40;90.90;;;;;;4993640;28;92256;-63
2021/04/21 02:59:43;;;;;;;;;;;8.30;90.90;;;;;;4998926;28;92501;-63
2021/04/21 03:02:10;;;;;;;;;;;8.30;90.90;;;;;;4994699;28;92211;-63
2021/04/21 03:04:38;;;;;;;;;;;8.30;90.90;;;;;;4993614;28;92642;-62
2021/04/21 03:07:07;;;;;;;;;;;8.40;91.00;;;;;;4997818;28;93173;-63
2021/04/21 03:09:41;;;;;;;;;;;8.30;90.90;;;;;;4995958;28;92928;-62
2021/04/21 03:12:08;;;;;;;;;;;8.30;90.90;;;;;;4996065;28;93688;-63
2021/04/21 03:14:34;;;;;;;;;;;8.30;90.90;;;;;;5001402;28;92207;-62
2021/04/21 03:17:01;;;;;;;;;;;8.30;91.00;;;;;;4996191;28;96486;-63
2021/04/21 03:19:28;;;;;;;;;;;8.30;90.90;;;;;;4996354;28;92197;-62
2021/04/21 03:21:58;;;;;;;;;;;8.30;91.00;;;;;;4993360;28;92302;-63
2021/04/21 03:24:26;;;;;;;;;;;8.30;90.90;;;;;;4993787;28;92427;-62
2021/04/21 03:26:54;;;;;;;;;;;8.30;90.90;;;;;;4996708;28;92144;-63
2021/04/21 03:29:31;;;;;;;;;;;8.30;90.90;;;;;;4993744;28;92552;-63
2021/04/21 03:31:59;;;;;;;;;;;8.30;90.90;;;;;;4995648;28;93632;-62
2021/04/21 03:34:26;;;;;;;;;;;8.30;90.90;;;;;;4994662;28;92171;-62
2021/04/21 03:36:52;;;;;;;;;;;8.30;90.90;;;;;;4996796;28;93827;-63
2021/04/21 03:39:18;;;;;;;;;;;8.30;90.90;;;;;;4994077;28;92185;-63
2021/04/21 03:41:43;;;;;;;;;;;8.30;90.90;;;;;;4995252;28;92172;-63
2021/04/21 03:44:11;;;;;;;;;;;8.30;90.90;;;;;;4995112;28;93158;-62
2021/04/21 03:46:36;;;;;;;;;;;8.30;90.90;;;;;;4993311;28;93352;-63
2021/04/21 03:49:02;;;;;;;;;;;8.20;90.90;;;;;;4993915;28;92652;-62
2021/04/21 03:51:28;;;;;;;;;;;8.20;90.90;;;;;;4993799;28;92470;-62
2021/04/21 03:53:54;;;;;;;;;;;8.30;90.90;;;;;;4995556;28;92181;-62
2021/04/21 03:56:24;;;;;;;;;;;8.20;90.90;;;;;;4995384;28;93470;-63
2021/04/21 03:58:51;;;;;;;;;;;8.20;90.90;;;;;;4999433;28;93169;-62
2021/04/21 04:01:21;;;;;;;;;;;8.20;90.90;;;;;;4995020;28;92317;-63
2021/04/21 04:03:50;;;;;;;;;;;8.20;90.90;;;;;;4996386;28;93000;-62
2021/04/21 04:06:19;;;;;;;;;;;8.20;90.90;;;;;;4993566;28;92320;-62
2021/04/21 04:08:49;;;;;;;;;;;8.20;90.90;;;;;;4995442;28;92189;-62
2021/04/21 04:11:16;;;;;;;;;;;8.20;90.90;;;;;;4995227;28;94945;-62
2021/04/21 04:13:43;;;;;;;;;;;8.20;90.90;;;;;;4993260;28;91481;-63
2021/04/21 04:16:10;;;;;;;;;;;8.20;90.90;;;;;;4994804;28;93022;-63
2021/04/21 04:18:38;;;;;;;;;;;8.20;90.90;;;;;;4994653;28;94968;-62
2021/04/21 04:21:05;;;;;;;;;;;8.20;90.90;;;;;;4995939;28;93195;-62
2021/04/21 04:23:32;;;;;;;;;;;8.20;90.90;;;;;;4992479;28;92684;-62
2021/04/21 04:25:58;;;;;;;;;;;8.20;90.90;;;;;;4992546;28;92999;-62
2021/04/21 04:28:24;;;;;;;;;;;8.20;90.90;;;;;;4992788;28;93542;-63
2021/04/21 04:30:50;;;;;;;;;;;8.20;90.90;;;;;;4993316;28;93164;-62
2021/04/21 04:33:16;;;;;;;;;;;8.20;90.90;;;;;;4992807;28;92159;-62
2021/04/21 04:35:42;;;;;;;;;;;8.20;90.90;;;;;;4993049;28;93441;-63
2021/04/21 04:38:08;;;;;;;;;;;8.20;90.90;;;;;;4993358;28;92025;-62
2021/04/21 04:40:33;;;;;;;;;;;8.20;90.80;;;;;;4996378;28;92185;-62
2021/04/21 04:42:59;;;;;;;;;;;8.20;90.90;;;;;;4993865;28;92771;-63
2021/04/21 04:45:30;;;;;;;;;;;8.20;90.90;;;;;;4993926;28;93263;-62
2021/04/21 04:47:57;;;;;;;;;;;8.20;90.90;;;;;;4993659;28;93423;-63
2021/04/21 04:50:23;;;;;;;;;;;8.20;90.90;;;;;;4992090;28;92486;-63
2021/04/21 04:52:53;;;;;;;;;;;8.10;90.90;;;;;;4993298;28;92192;-62
2021/04/21 04:55:20;;;;;;;;;;;8.20;90.90;;;;;;4994553;28;92209;-62
2021/04/21 04:57:47;;;;;;;;;;;8.20;90.90;;;;;;4993088;28;93207;-63
2021/04/21 05:00:14;;;;;;;;;;;8.20;90.90;;;;;;4992576;28;93614;-62
2021/04/21 05:02:48;;;;;;;;;;;8.20;90.90;;;;;;4998788;28;92503;-62
2021/04/21 05:05:14;;;;;;;;;;;8.20;90.90;;;;;;4993281;28;92159;-62
2021/04/21 05:07:44;;;;;;;;;;;8.20;90.90;;;;;;4992400;28;92386;-62
2021/04/21 05:10:15;;;;;;;;;;;8.20;90.90;;;;;;4993470;28;94011;-62
2021/04/21 05:12:42;;;;;;;;;;;8.20;90.90;;;;;;4995228;28;92220;-63
2021/04/21 05:15:28;;;;;;;;;;;8.10;90.90;;;;;;4997743;28;92588;-62
2021/04/21 05:17:59;;;;;;;;;;;8.20;90.90;;;;;;4996668;28;93425;-62
2021/04/21 05:20:34;;;;;;;;;;;8.20;90.90;;;;;;4996545;28;92142;-62
2021/04/21 05:22:59;;;;;;;;;;;8.20;90.90;;;;;;4999493;28;92182;-63
2021/04/21 05:25:40;;;;;;;;;;;8.10;90.90;;;;;;5001096;28;93279;-62
2021/04/21 05:28:30;;;;;;;;;;;8.20;90.90;;;;;;4996152;28;92760;-62
2021/04/21 05:31:14;;;;;;;;;;;8.20;90.80;;;;;;4995945;28;94923;-62
2021/04/21 05:33:46;;;;;;;;;;;8.20;90.90;;;;;;4999907;28;93413;-62
2021/04/21 05:36:26;;;;;;;;;;;8.20;90.80;;;;;;4997891;28;93113;-62
2021/04/21 05:38:52;;;;;;;;;;;8.20;90.80;;;;;;4997156;28;93290;-62
2021/04/21 05:41:36;;;;;;;;;;;8.20;90.80;;;;;;4997187;28;92197;-62
2021/04/21 05:44:20;;;;;;;;;;;8.20;90.90;;;;;;4999420;28;92197;-63
2021/04/21 05:46:59;;;;;;;;;;;8.10;90.80;;;;;;4996070;28;93072;-63
2021/04/21 05:49:34;;;;;;;;;;;8.10;90.80;;;;;;4999201;28;92197;-63
2021/04/21 05:52:14;;;;;;;;;;;8.20;90.80;;;;;;4997729;28;92705;-62
2021/04/21 05:54:58;;;;;;;;;;;8.10;90.80;;;;;;4998833;28;91476;-63
2021/04/21 05:57:36;;;;;;;;;;;8.10;90.80;;;;;;4995190;28;92172;-62
2021/04/21 06:00:01;;;;;;;;;;;8.10;90.90;;;;;;4999102;28;93219;-62
2021/04/21 06:02:28;;;;;;;;;;;8.20;90.90;;;;;;4996375;28;95111;-63
2021/04/21 06:05:07;;;;;;;;;;;8.20;90.90;;;;;;4999367;28;93060;-62
2021/04/21 06:07:32;;;;;;;;;;;8.20;90.80;;;;;;4995303;28;93749;-62
2021/04/21 06:09:58;;;;;;;;;;;8.20;90.90;;;;;;4995085;28;92234;-62
2021/04/21 06:12:24;;;;;;;;;;;8.20;90.80;;;;;;4998923;28;92221;-62
2021/04/21 06:14:51;;;;;;;;;;;8.20;90.80;;;;;;4997270;28;92156;-63
2021/04/21 06:17:22;;;;;;;;;;;8.20;90.80;;;;;;4994543;28;94523;-62
2021/04/21 06:19:48;;;;;;;;;;;8.20;90.80;;;;;;4994544;28;91990;-62
2021/04/21 06:22:13;;;;;;;;;;;8.20;90.80;;;;;;4995275;28;92177;-63
2021/04/21 06:24:39;;;;;;;;;;;8.20;90.80;;;;;;4996069;28;92346;-63
2021/04/21 06:27:08;;;;;;;;;;;8.20;90.80;;;;;;4996084;28;95457;-62
2021/04/21 06:29:34;;;;;;;;;;;8.20;90.80;;;;;;4998908;28;92177;-62
2021/04/21 06:32:03;;;;;;;;;;;8.20;90.80;;;;;;4997890;28;93125;-63
2021/04/21 06:34:29;;;;;;;;;;;8.30;90.80;;;;;;4996822;28;94822;-63
2021/04/21 06:36:58;;;;;;;;;;;8.20;90.80;;;;;;4994455;28;92437;-62
2021/04/21 06:39:23;;;;;;;;;;;8.30;90.80;;;;;;4997443;28;93176;-63
2021/04/21 06:42:00;;;;;;;;;;;8.30;90.80;;;;;;4999047;28;92384;-63
2021/04/21 06:44:32;;;;;;;;;;;8.30;90.80;;;;;;4998553;28;92103;-62
2021/04/21 06:46:58;;;;;;;;;;;8.40;90.80;;;;;;4995361;28;94409;-62
2021/04/21 06:49:24;;;;;;;;;;;8.30;90.80;;;;;;4996758;28;92248;-63
2021/04/21 06:51:49;;;;;;;;;;;8.30;90.80;;;;;;4996521;28;93152;-63
2021/04/21 06:54:18;;;;;;;;;;;8.30;90.80;;;;;;5000321;28;93076;-63
2021/04/21 06:56:44;;;;;;;;;;;8.40;90.80;;;;;;4994704;28;92201;-63
2021/04/21 06:59:17;;;;;;;;;;;8.30;90.80;;;;;;4995260;28;93525;-63
2021/04/21 07:01:47;;;;;;;;;;;8.40;90.70;;;;;;4994378;28;93857;-63
2021/04/21 07:04:17;;;;;;;;;;;8.40;90.70;;;;;;4995122;28;94441;-62
2021/04/21 07:06:43;;;;;;;;;;;8.40;90.70;;;;;;4997277;28;93336;-62
2021/04/21 07:09:13;;;;;;;;;;;8.40;90.70;;;;;;4998323;28;91935;-62
2021/04/21 07:11:39;;;;;;;;;;;8.40;90.70;;;;;;4996929;28;93122;-63
2021/04/21 07:14:04;;;;;;;;;;;8.40;90.70;;;;;;4994430;28;93327;-63
2021/04/21 07:16:30;;;;;;;;;;;8.40;90.80;;;;;;4996229;28;93182;-63
2021/04/21 07:19:00;;;;;;;;;;;8.40;90.80;;;;;;4994424;28;92671;-63
2021/04/21 07:21:26;;;;;;;;;;;8.40;90.80;;;;;;4995457;28;92230;-62
2021/04/21 07:23:53;;;;;;;;;;;8.50;90.80;;;;;;4993701;28;92280;-63
2021/04/21 07:26:19;;;;;;;;;;;8.50;90.70;;;;;;4997101;28;94096;-63
2021/04/21 07:28:45;;;;;;;;;;;8.50;90.80;;;;;;4997664;28;92266;-62
2021/04/21 07:31:15;;;;;;;;;;;8.50;90.80;;;;;;4995761;28;92218;-63
2021/04/21 07:33:43;;;;;;;;;;;8.50;90.80;;;;;;4995845;28;92150;-62
2021/04/21 07:36:11;;;;;;;;;;;8.50;90.80;;;;;;4994584;28;93669;-63
2021/04/21 07:38:38;;;;;;;;;;;8.50;90.80;;;;;;4997778;28;92265;-63
2021/04/21 07:41:04;;;;;;;;;;;8.50;90.80;;;;;;4994288;28;93187;-63
2021/04/21 07:43:36;;;;;;;;;;;8.50;90.80;;;;;;4995386;28;93453;-63
2021/04/21 07:46:01;;;;;;;;;;;8.50;90.80;;;;;;4994792;28;93037;-62
2021/04/21 07:48:33;;;;;;;;;;;8.50;90.80;;;;;;4995927;28;92308;-63
2021/04/21 07:50:59;;;;;;;;;;;8.50;90.90;;;;;;4995863;28;93716;-63
2021/04/21 07:53:25;;;;;;;;;;;8.50;90.90;;;;;;4994863;28;92738;-63
2021/04/21 07:56:02;;;;;;;;;;;8.50;90.80;;;;;;4995761;28;92184;-62
2021/04/21 07:58:28;;;;;;;;;;;8.50;90.90;;;;;;4995245;28;92557;-63
2021/04/21 08:00:53;;;;;;;;;;;8.50;90.90;;;;;;4998504;28;92766;-63
2021/04/21 08:03:23;;;;;;;;;;;8.60;90.90;;;;;;4997355;28;92537;-63
2021/04/21 08:05:54;;;;;;;;;;;8.60;90.90;;;;;;4991975;28;94082;-63
2021/04/21 08:08:27;;;;;;;;;;;8.50;90.80;;;;;;4993177;28;92272;-62
2021/04/21 08:10:52;;;;;;;;;;;8.60;90.80;;;;;;4995014;28;94034;-63
2021/04/21 08:13:37;;;;;;;;;;;8.60;90.90;;;;;;4995327;28;95080;-63
2021/04/21 08:16:03;;;;;;;;;;;8.60;90.90;;;;;;4993688;28;92171;-63
2021/04/21 08:18:31;;;;;;;;;;;8.60;90.80;;;;;;4993034;28;93639;-63
2021/04/21 08:20:57;;;;;;;;;;;8.60;90.80;;;;;;4995588;28;93319;-63
2021/04/21 08:23:23;;;;;;;;;;;8.60;91.20;;;;;;4998941;28;91541;-63
2021/04/21 08:25:49;;;;;;;;;;;8.60;90.90;;;;;;4995857;28;92607;-63
2021/04/21 08:28:15;;;;;;;;;;;8.60;90.90;;;;;;4995560;28;92210;-62
2021/04/21 08:30:51;;;;;;;;;;;8.60;90.90;;;;;;4996082;28;93801;-63
2021/04/21 08:33:17;;;;;;;;;;;8.60;90.80;;;;;;4996137;28;92767;-63
2021/04/21 08:35:43;;;;;;;;;;;8.70;90.90;;;;;;4996390;28;93000;-63
2021/04/21 08:38:08;;;;;;;;;;;8.70;90.90;;;;;;4993191;28;93891;-63
2021/04/21 08:40:38;;;;;;;;;;;8.60;90.80;;;;;;4992135;28;92971;-63
2021/04/21 08:43:06;;;;;;;;;;;8.60;90.90;;;;;;4993769;28;92164;-63
2021/04/21 08:45:32;;;;;;;;;;;8.70;90.90;;;;;;4999239;28;93616;-63
2021/04/21 08:47:58;;;;;;;;;;;8.70;90.90;;;;;;4997996;28;91481;-63
2021/04/21 08:50:25;;;;;;;;;;;8.70;90.90;;;;;;4997000;28;92268;-63
2021/04/21 08:52:54;;;;;;;;;;;8.70;91.00;;;;;;4995242;28;94941;-63
2021/04/21 08:55:20;;;;;;;;;;;8.70;91.00;;;;;;4998459;28;93170;-63
2021/04/21 08:57:47;;;;;;;;;;;8.70;91.00;;;;;;4999538;28;93453;-63
2021/04/21 09:00:13;;;;;;;;;;;8.70;90.90;;;;;;4999014;28;92530;-63
2021/04/21 09:02:39;;;;;;;;;;;8.80;90.90;;;;;;4998838;28;92242;-63
2021/04/21 09:05:05;;;;;;;;;;;8.80;91.00;;;;;;5000710;28;92243;-63
2021/04/21 09:07:31;;;;;;;;;;;8.80;91.00;;;;;;4997353;28;92283;-63
2021/04/21 09:09:58;;;;;;;;;;;8.80;91.00;;;;;;4998237;28;92172;-63
2021/04/21 09:12:24;;;;;;;;;;;8.80;91.00;;;;;;4998443;28;92401;-63
2021/04/21 09:14:50;;;;;;;;;;;8.80;91.00;;;;;;4997424;28;92184;-63
2021/04/21 09:17:16;;;;;;;;;;;8.90;91.20;;;;;;4997805;28;92181;-63
2021/04/21 09:19:41;;;;;;;;;;;8.90;90.90;;;;;;4997524;28;93571;-63
2021/04/21 09:22:08;;;;;;;;;;;8.90;90.90;;;;;;5000042;28;92256;-63
2021/04/21 09:24:37;;;;;;;;;;;8.90;90.90;;;;;;4997659;28;92193;-63
2021/04/21 09:27:41;;;;;;;;;;;8.90;90.80;;;;;;5002034;28;94749;-63
2021/04/21 09:30:11;;;;;;;;;;;8.90;90.80;;;;;;4935125;28;92267;-63
2021/04/21 09:33:03;;;;;;;;;;;9.00;90.80;;;;;;4935980;28;93409;-63
2021/04/21 09:35:30;;;;;;;;;;;9.00;90.80;;;;;;4973866;28;92271;-63
2021/04/21 09:38:09;;;;;;;;;;;9.00;90.80;;;;;;4996369;28;93769;-63
2021/04/21 09:40:37;;;;;;;;;;;9.00;90.80;;;;;;4998426;28;93298;-63
2021/04/21 09:43:04;;;;;;;;;;;9.00;90.80;;;;;;4995767;28;92221;-63
2021/04/21 09:45:40;;;;;;;;;;;9.00;90.80;;;;;;4995150;28;93147;-63
2021/04/21 09:48:10;;;;;;;;;;;9.00;90.80;;;;;;4994992;28;94151;-62
2021/04/21 09:50:37;;;;;;;;;;;9.00;90.80;;;;;;4999853;28;92183;-63
2021/04/21 09:53:16;;;;;;;;;;;9.00;90.90;;;;;;4994173;28;93944;-63
2021/04/21 09:55:42;;;;;;;;;;;9.00;90.90;;;;;;4996717;28;92226;-63
2021/04/21 09:58:07;;;;;;;;;;;9.00;90.90;;;;;;4997790;28;92312;-63
2021/04/21 10:00:38;;;;;;;;;;;9.10;90.80;;;;;;4997859;28;93244;-63
2021/04/21 10:03:14;;;;;;;;;;;9.00;90.80;;;;;;4999972;28;91487;-63
2021/04/21 10:05:40;;;;;;;;;;;9.10;90.80;;;;;;4999084;28;92342;-63
2021/04/21 10:08:11;;;;;;;;;;;9.10;90.80;;;;;;4996795;28;92994;-63
2021/04/21 10:10:37;;;;;;;;;;;9.10;90.80;;;;;;4997243;28;93399;-62
2021/04/21 10:13:19;;;;;;;;;;;9.10;90.80;;;;;;4999323;28;93966;-63
2021/04/21 10:15:45;;;;;;;;;;;9.10;90.70;;;;;;4995833;28;93780;-63
2021/04/21 10:18:12;;;;;;;;;;;9.10;90.60;;;;;;4994631;28;93598;-62
2021/04/21 10:20:37;;;;;;;;;;;9.10;90.90;;;;;;4995760;28;94518;-63
2021/04/21 10:23:05;;;;;;;;;;;9.10;90.70;;;;;;4996372;28;93563;-63
2021/04/21 10:25:31;;;;;;;;;;;9.10;90.70;;;;;;4998792;28;93778;-63
2021/04/21 10:27:57;;;;;;;;;;;9.10;90.70;;;;;;4997442;28;93064;-62
2021/04/21 10:30:22;;;;;;;;;;;9.20;90.70;;;;;;4999324;28;93856;-63
2021/04/21 10:32:48;;;;;;;;;;;9.10;90.70;;;;;;4998043;28;93409;-63
2021/04/21 10:35:14;;;;;;;;;;;9.10;90.80;;;;;;4999346;28;94744;-63
2021/04/21 10:37:40;;;;;;;;;;;9.10;90.70;;;;;;4994789;28;93337;-63
2021/04/21 10:40:07;;;;;;;;;;;9.20;90.80;;;;;;4994726;28;92698;-63
2021/04/21 10:42:49;;;;;;;;;;;9.10;90.80;;;;;;4997429;28;93801;-62
2021/04/21 10:45:16;;;;;;;;;;;9.10;91.20;;;;;;4997017;28;93783;-63
2021/04/21 10:47:44;;;;;;;;;;;9.20;90.90;;;;;;4997327;28;93050;-63
2021/04/21 10:50:10;;;;;;;;;;;9.20;91.00;;;;;;4997206;28;92270;-63
2021/04/21 10:52:39;;;;;;;;;;;9.20;90.90;;;;;;4996547;28;92481;-63
2021/04/21 10:55:08;;;;;;;;;;;9.30;90.90;;;;;;4998045;28;94495;-63
2021/04/21 10:57:38;;;;;;;;;;;9.30;90.80;;;;;;4998768;28;92231;-63
2021/04/21 11:00:17;;;;;;;;;;;9.30;90.80;;;;;;4996589;28;93588;-63
2021/04/21 11:02:47;;;;;;;;;;;9.40;90.90;;;;;;4994208;28;92152;-63
2021/04/21 11:05:14;;;;;;;;;;;9.30;90.80;;;;;;4995690;28;92397;-63
2021/04/21 11:07:41;;;;;;;;;;;9.30;90.80;;;;;;4994289;28;93301;-63
2021/04/21 11:10:30;;;;;;;;;;;9.40;90.80;;;;;;4993341;28;92205;-63
2021/04/21 11:12:55;;;;;;;;;;;9.30;90.80;;;;;;4995378;28;92145;-63
2021/04/21 11:15:33;;;;;;;;;;;9.40;90.80;;;;;;4995052;28;94268;-63
2021/04/21 11:18:08;;;;;;;;;;;9.40;90.80;;;;;;4978114;28;91433;-63
2021/04/21 11:20:42;;;;;;;;;;;9.40;90.80;;;;;;4975392;28;94209;-63
2021/04/21 11:23:28;;;;;;;;;;;9.40;90.90;;;;;;4977002;28;92158;-63
2021/04/21 11:25:53;;;;;;;;;;;9.40;90.80;;;;;;4976559;28;93181;-63
2021/04/21 11:28:39;;;;;;;;;;;9.50;90.80;;;;;;4977690;28;93186;-63
2021/04/21 11:31:04;;;;;;;;;;;9.50;90.80;;;;;;4977929;28;93091;-63
2021/04/21 11:33:48;;;;;;;;;;;9.50;90.80;;;;;;4977875;28;92566;-63
2021/04/21 11:36:50;;;;;;;;;;;9.50;90.90;;;;;;4973031;28;95349;-63
2021/04/21 11:39:36;;;;;;;;;;;9.50;90.90;;;;;;4914341;28;93198;-63
2021/04/21 11:42:17;;;;;;;;;;;9.50;90.90;;;;;;4976248;28;93092;-63
2021/04/21 11:44:55;;;;;;;;;;;9.50;90.80;;;;;;4978049;28;92224;-63
2021/04/21 11:47:37;;;;;;;;;;;9.60;90.90;;;;;;4975174;28;92254;-63
2021/04/21 11:50:10;;;;;;;;;;;9.60;90.90;;;;;;4973378;28;94361;-63
2021/04/21 11:52:41;;;;;;;;;;;9.60;90.80;;;;;;4976990;28;93083;-62
2021/04/21 11:55:07;;;;;;;;;;;9.60;90.80;;;;;;4975600;28;94771;-63
2021/04/21 11:57:37;;;;;;;;;;;9.60;90.80;;;;;;4974230;28;92687;-63
2021/04/21 12:00:07;;;;;;;;;;;9.60;90.70;;;;;;4975238;28;92202;-63
2021/04/21 12:02:35;;;;;;;;;;;9.60;90.70;;;;;;4976610;28;92510;-63
2021/04/21 12:05:01;;;;;;;;;;;9.60;90.70;;;;;;4976430;28;93081;-63
2021/04/21 12:07:26;;;;;;;;;;;9.60;90.70;;;;;;4974731;28;93408;-63
2021/04/21 12:09:52;;;;;;;;;;;9.60;90.70;;;;;;4976020;28;91493;-63
2021/04/21 12:12:24;;;;;;;;;;;9.60;90.70;;;;;;4977144;28;92196;-63
2021/04/21 12:15:05;;;;;;;;;;;9.70;90.80;;;;;;4976349;28;92914;-63
2021/04/21 12:17:31;;;;;;;;;;;9.70;90.80;;;;;;4990560;28;93574;-63
2021/04/21 12:19:59;;;;;;;;;;;9.70;90.80;;;;;;4994612;28;92266;-63
2021/04/21 12:22:42;;;;;;;;;;;9.70;91.10;;;;;;4992624;28;92680;-63
2021/04/21 12:25:09;;;;;;;;;;;9.70;90.90;;;;;;4996719;28;92706;-63
2021/04/21 12:27:35;;;;;;;;;;;9.70;90.80;;;;;;4998396;28;92175;-63
2021/04/21 12:30:10;;;;;;;;;;;9.70;90.80;;;;;;4996360;28;92975;-63
2021/04/21 12:32:36;;;;;;;;;;;9.70;90.90;;;;;;4992643;28;93815;-63
2021/04/21 12:35:03;;;;;;;;;;;9.80;90.90;;;;;;4994001;28;91827;-63
2021/04/21 12:37:29;;;;;;;;;;;9.80;90.90;;;;;;4992353;28;94420;-63
2021/04/21 12:39:55;;;;;;;;;;;9.80;91.00;;;;;;4994942;28;92303;-63
2021/04/21 12:42:20;;;;;;;;;;;9.80;90.90;;;;;;4991927;28;93144;-63
2021/04/21 12:44:46;;;;;;;;;;;9.80;90.90;;;;;;4992961;28;93262;-63
2021/04/21 12:47:12;;;;;;;;;;;9.80;90.90;;;;;;4993024;28;92184;-63
2021/04/21 12:49:42;;;;;;;;;;;9.80;90.90;;;;;;4998321;28;93828;-63
2021/04/21 12:52:09;;;;;;;;;;;9.90;91.00;;;;;;4994123;28;93700;-63
2021/04/21 12:54:36;;;;;;;;;;;9.90;91.00;;;;;;4996498;28;92243;-63
2021/04/21 12:57:03;;;;;;;;;;;9.90;91.00;;;;;;4993384;28;93118;-63
2021/04/21 12:59:37;;;;;;;;;;;9.90;91.00;;;;;;4993787;28;91477;-63
2021/04/21 13:02:03;;;;;;;;;;;9.80;91.00;;;;;;4996819;28;92722;-63
2021/04/21 13:04:41;;;;;;;;;;;9.90;91.00;;;;;;4993903;28;92942;-63
2021/04/21 13:07:15;;;;;;;;;;;9.90;91.00;;;;;;4995402;28;93108;-63
2021/04/21 13:09:41;;;;;;;;;;;10.00;91.00;;;;;;4994913;28;94879;-63
2021/04/21 13:12:10;;;;;;;;;;;10.00;91.00;;;;;;4992838;28;92232;-63
2021/04/21 13:14:43;;;;;;;;;;;10.00;90.90;;;;;;4995637;28;93535;-63
2021/04/21 13:17:09;;;;;;;;;;;10.10;90.90;;;;;;4992150;28;94643;-63
2021/04/21 13:19:36;;;;;;;;;;;10.10;90.80;;;;;;4993371;28;92176;-63
2021/04/21 13:22:04;;;;;;;;;;;10.20;90.80;;;;;;4992734;28;94030;-63
2021/04/21 13:24:37;;;;;;;;;;;10.20;90.80;;;;;;4993601;28;92901;-63
2021/04/21 13:27:02;;;;;;;;;;;10.20;90.80;;;;;;4995331;28;92164;-63
2021/04/21 13:29:35;;;;;;;;;;;10.20;90.80;;;;;;4996414;28;92580;-63
2021/04/21 13:32:06;;;;;;;;;;;10.20;90.80;;;;;;4997361;28;94002;-63
2021/04/21 13:34:32;;;;;;;;;;;10.20;90.80;;;;;;4996504;28;93788;-63
2021/04/21 13:36:58;;;;;;;;;;;10.20;90.80;;;;;;4998377;28;94607;-63
2021/04/21 13:39:24;;;;;;;;;;;10.30;90.80;;;;;;4998998;28;92275;-63
2021/04/21 13:41:50;;;;;;;;;;;10.20;90.80;;;;;;4998455;28;92631;-63
2021/04/21 13:44:15;;;;;;;;;;;10.20;90.90;;;;;;4998841;28;93265;-63
2021/04/21 13:46:41;;;;;;;;;;;10.30;90.90;;;;;;4997857;28;93076;-63
2021/04/21 13:49:06;;;;;;;;;;;10.20;90.90;;;;;;4995385;28;92510;-63
2021/04/21 13:51:32;;;;;;;;;;;10.20;90.90;;;;;;4994937;28;92750;-63
2021/04/21 13:53:57;;;;;;;;;;;10.20;90.90;;;;;;4983284;28;92391;-63
2021/04/21 13:56:23;;;;;;;;;;;10.20;90.90;;;;;;4975701;28;94807;-63
2021/04/21 13:58:48;;;;;;;;;;;10.30;90.80;;;;;;4977612;28;92277;-63
2021/04/21 14:01:14;;;;;;;;;;;10.30;90.80;;;;;;4978640;28;92574;-63
2021/04/21 14:03:39;;;;;;;;;;;10.30;90.80;;;;;;4978349;28;93073;-63
2021/04/21 14:06:05;;;;;;;;;;;10.30;90.80;;;;;;4979515;28;93042;-63
2021/04/21 14:08:30;;;;;;;;;;;10.30;90.80;;;;;;4976123;28;93842;-63
2021/04/21 14:10:55;;;;;;;;;;;10.30;90.80;;;;;;4975063;28;93331;-63
2021/04/21 14:13:21;;;;;;;;;;;10.30;90.70;;;;;;4977405;28;91523;-63
2021/04/21 14:15:47;;;;;;;;;;;10.30;90.70;;;;;;4980420;28;92213;-63
2021/04/21 14:18:12;;;;;;;;;;;10.30;90.70;;;;;;4979210;28;92216;-63
2021/04/21 14:20:38;;;;;;;;;;;10.30;90.80;;;;;;4975833;28;94185;-63
2021/04/21 14:23:03;;;;;;;;;;;10.30;90.80;;;;;;4976892;28;93313;-63
2021/04/21 14:25:29;;;;;;;;;;;10.40;90.80;;;;;;4974551;28;92165;-63
2021/04/21 14:27:54;;;;;;;;;;;10.40;91.10;;;;;;4975322;28;92509;-63
2021/04/21 14:30:21;;;;;;;;;;;10.50;90.70;;;;;;4974196;28;92827;-63
2021/04/21 14:32:46;;;;;;;;;;;10.50;90.60;;;;;;4979173;28;92218;-63
2021/04/21 14:35:13;;;;;;;;;;;10.60;90.60;;;;;;4972846;28;93705;-63
2021/04/21 14:37:39;;;;;;;;;;;10.60;90.60;;;;;;4980474;28;92363;-63
2021/04/21 14:40:05;;;;;;;;;;;10.60;90.60;;;;;;4978293;28;92173;-63
2021/04/21 14:42:31;;;;;;;;;;;10.70;90.90;;;;;;4978349;28;93310;-63
2021/04/21 14:44:56;;;;;;;;;;;10.70;90.60;;;;;;4978106;28;93152;-63